sensor_id;sensor_type;location;lat;lon;timestamp;pressure;altitude;pressure_sealevel;temperature;humidity
740;BME280;354;42.694;23.336;2022-08-16T00:01:16;94881.25;;;18.35;100.00
740;BME280;354;42.694;23.336;2022-08-16T00:03:42;94872.47;;;18.30;100.00
740;BME280;354;42.694;23.336;2022-08-16T00:06:08;94873.78;;;18.37;100.00
740;BME280;354;42.694;23.336;2022-08-16T00:08:33;94888.69;;;18.54;100.00
740;BME280;354;42.694;23.336;2022-08-16T00:10:58;94897.47;;;18.49;100.00
740;BME280;354;42.694;23.336;2022-08-16T00:13:24;94897.22;;;18.40;100.00
740;BME280;354;42.694;23.336;2022-08-16T00:15:49;94891.88;;;18.46;100.00
740;BME280;354;42.694;23.336;2022-08-16T00:18:17;94884.94;;;18.55;100.00
740;BME280;354;42.694;23.336;2022-08-16T00:20:45;94891.63;;;18.47;100.00
740;BME280;354;42.694;23.336;2022-08-16T00:23:12;94876.97;;;18.44;100.00
740;BME280;354;42.694;23.336;2022-08-16T00:25:38;94891.34;;;18.38;100.00
740;BME280;354;42.694;23.336;2022-08-16T00:28:04;94887.91;;;18.43;100.00
740;BME280;354;42.694;23.336;2022-08-16T00:30:29;94880.97;;;18.42;100.00
740;BME280;354;42.694;23.336;2022-08-16T00:32:56;94890.28;;;18.44;100.00
740;BME280;354;42.694;23.336;2022-08-16T00:35:29;94892.44;;;18.37;100.00
740;BME280;354;42.694;23.336;2022-08-16T00:37:54;94894.03;;;18.28;100.00
740;BME280;354;42.694;23.336;2022-08-16T00:40:40;94898.81;;;18.21;100.00
740;BME280;354;42.694;23.336;2022-08-16T00:43:12;94889.25;;;18.25;100.00
740;BME280;354;42.694;23.336;2022-08-16T00:45:52;94893.50;;;18.26;100.00
740;BME280;354;42.694;23.336;2022-08-16T00:48:19;94894.81;;;18.34;100.00
740;BME280;354;42.694;23.336;2022-08-16T00:50:45;94897.22;;;18.10;100.00
740;BME280;354;42.694;23.336;2022-08-16T00:53:13;94910.25;;;18.11;100.00
740;BME280;354;42.694;23.336;2022-08-16T00:55:43;94917.72;;;18.14;100.00
740;BME280;354;42.694;23.336;2022-08-16T00:58:11;94913.22;;;18.25;100.00
740;BME280;354;42.694;23.336;2022-08-16T01:00:36;94923.31;;;18.23;100.00
740;BME280;354;42.694;23.336;2022-08-16T01:03:06;94910.78;;;18.29;100.00
740;BME280;354;42.694;23.336;2022-08-16T01:05:32;94923.59;;;18.37;100.00
740;BME280;354;42.694;23.336;2022-08-16T01:07:58;94920.66;;;18.38;100.00
740;BME280;354;42.694;23.336;2022-08-16T01:10:26;94921.72;;;18.48;100.00
740;BME280;354;42.694;23.336;2022-08-16T01:12:52;94922.50;;;18.58;100.00
740;BME280;354;42.694;23.336;2022-08-16T01:15:18;94925.41;;;18.62;100.00
740;BME280;354;42.694;23.336;2022-08-16T01:17:45;94931.81;;;18.66;100.00
740;BME280;354;42.694;23.336;2022-08-16T01:20:12;94922.75;;;18.77;100.00
740;BME280;354;42.694;23.336;2022-08-16T01:22:57;94929.16;;;18.76;100.00
740;BME280;354;42.694;23.336;2022-08-16T01:25:38;94929.44;;;18.75;100.00
740;BME280;354;42.694;23.336;2022-08-16T01:28:08;94928.34;;;18.81;100.00
740;BME280;354;42.694;23.336;2022-08-16T01:30:39;94936.09;;;18.77;100.00
740;BME280;354;42.694;23.336;2022-08-16T01:33:06;94933.97;;;18.74;100.00
740;BME280;354;42.694;23.336;2022-08-16T01:35:43;94934.47;;;18.66;100.00
740;BME280;354;42.694;23.336;2022-08-16T01:40:54;94932.91;;;18.75;100.00
740;BME280;354;42.694;23.336;2022-08-16T01:43:21;94940.63;;;18.77;100.00
740;BME280;354;42.694;23.336;2022-08-16T01:45:47;94927.56;;;18.80;100.00
740;BME280;354;42.694;23.336;2022-08-16T01:48:13;94930.75;;;18.82;100.00
740;BME280;354;42.694;23.336;2022-08-16T01:50:40;94932.59;;;18.92;100.00
740;BME280;354;42.694;23.336;2022-08-16T01:53:06;94932.09;;;18.85;100.00
740;BME280;354;42.694;23.336;2022-08-16T01:55:31;94931.81;;;18.86;100.00
740;BME280;354;42.694;23.336;2022-08-16T01:57:57;94936.84;;;18.98;100.00
740;BME280;354;42.694;23.336;2022-08-16T02:00:24;94936.06;;;18.92;100.00
740;BME280;354;42.694;23.336;2022-08-16T02:02:49;94937.41;;;18.90;100.00
740;BME280;354;42.694;23.336;2022-08-16T02:05:15;94937.13;;;18.97;100.00
740;BME280;354;42.694;23.336;2022-08-16T02:07:40;94946.13;;;19.11;100.00
740;BME280;354;42.694;23.336;2022-08-16T02:10:09;94942.97;;;19.04;100.00
740;BME280;354;42.694;23.336;2022-08-16T02:12:35;94955.19;;;19.10;100.00
740;BME280;354;42.694;23.336;2022-08-16T02:15:00;94955.19;;;19.10;100.00
740;BME280;354;42.694;23.336;2022-08-16T02:17:28;94975.44;;;19.21;100.00
740;BME280;354;42.694;23.336;2022-08-16T02:19:53;94974.34;;;19.22;100.00
740;BME280;354;42.694;23.336;2022-08-16T02:22:21;94983.19;;;19.17;100.00
740;BME280;354;42.694;23.336;2022-08-16T02:24:47;94978.09;;;19.21;100.00
740;BME280;354;42.694;23.336;2022-08-16T02:27:13;94960.03;;;19.03;100.00
740;BME280;354;42.694;23.336;2022-08-16T02:29:39;94995.97;;;19.15;100.00
740;BME280;354;42.694;23.336;2022-08-16T02:32:05;94998.63;;;19.26;100.00
740;BME280;354;42.694;23.336;2022-08-16T02:34:31;94987.75;;;19.07;100.00
740;BME280;354;42.694;23.336;2022-08-16T02:36:57;94990.16;;;18.98;100.00
740;BME280;354;42.694;23.336;2022-08-16T02:39:22;94999.22;;;18.92;100.00
740;BME280;354;42.694;23.336;2022-08-16T02:41:49;95000.03;;;18.82;100.00
740;BME280;354;42.694;23.336;2022-08-16T02:44:16;95000.31;;;18.91;100.00
740;BME280;354;42.694;23.336;2022-08-16T02:46:42;94992.56;;;18.84;100.00
740;BME280;354;42.694;23.336;2022-08-16T02:49:08;95005.13;;;18.74;100.00
740;BME280;354;42.694;23.336;2022-08-16T02:51:35;95000.56;;;18.59;100.00
740;BME280;354;42.694;23.336;2022-08-16T02:54:01;95010.94;;;18.50;100.00
740;BME280;354;42.694;23.336;2022-08-16T02:56:26;95015.44;;;18.50;100.00
740;BME280;354;42.694;23.336;2022-08-16T02:58:53;95017.03;;;18.51;100.00
740;BME280;354;42.694;23.336;2022-08-16T03:01:23;95019.19;;;18.49;100.00
740;BME280;354;42.694;23.336;2022-08-16T03:03:51;95010.66;;;18.41;100.00
740;BME280;354;42.694;23.336;2022-08-16T03:06:17;95014.41;;;18.40;100.00
740;BME280;354;42.694;23.336;2022-08-16T03:08:45;95004.78;;;18.44;100.00
740;BME280;354;42.694;23.336;2022-08-16T03:11:11;94998.41;;;18.40;100.00
740;BME280;354;42.694;23.336;2022-08-16T03:13:37;94997.06;;;18.33;100.00
740;BME280;354;42.694;23.336;2022-08-16T03:16:05;94995.75;;;18.30;100.00
740;BME280;354;42.694;23.336;2022-08-16T03:18:30;94993.59;;;18.22;100.00
740;BME280;354;42.694;23.336;2022-08-16T03:20:56;94994.66;;;18.26;100.00
740;BME280;354;42.694;23.336;2022-08-16T03:23:24;94996.25;;;18.17;100.00
740;BME280;354;42.694;23.336;2022-08-16T03:25:49;94992.78;;;18.11;100.00
740;BME280;354;42.694;23.336;2022-08-16T03:28:14;94990.66;;;18.13;100.00
740;BME280;354;42.694;23.336;2022-08-16T03:30:40;94965.59;;;17.94;100.00
740;BME280;354;42.694;23.336;2022-08-16T03:33:05;94992.53;;;18.08;100.00
740;BME280;354;42.694;23.336;2022-08-16T03:35:32;94986.38;;;18.07;100.00
740;BME280;354;42.694;23.336;2022-08-16T03:38:00;94990.38;;;18.10;100.00
740;BME280;354;42.694;23.336;2022-08-16T03:40:28;94997.31;;;18.11;100.00
740;BME280;354;42.694;23.336;2022-08-16T03:42:53;94974.94;;;17.92;100.00
740;BME280;354;42.694;23.336;2022-08-16T03:45:19;94981.56;;;17.89;100.00
740;BME280;354;42.694;23.336;2022-08-16T03:47:46;95004.75;;;18.09;100.00
740;BME280;354;42.694;23.336;2022-08-16T03:50:13;95009.56;;;18.27;100.00
740;BME280;354;42.694;23.336;2022-08-16T03:52:39;95015.72;;;18.38;100.00
740;BME280;354;42.694;23.336;2022-08-16T03:55:06;95013.84;;;18.28;100.00
740;BME280;354;42.694;23.336;2022-08-16T03:57:33;95012.50;;;18.26;100.00
740;BME280;354;42.694;23.336;2022-08-16T03:59:58;95004.53;;;18.26;100.00
740;BME280;354;42.694;23.336;2022-08-16T04:02:24;95004.53;;;18.36;100.00
740;BME280;354;42.694;23.336;2022-08-16T04:04:50;95008.81;;;18.47;100.00
740;BME280;354;42.694;23.336;2022-08-16T04:07:16;95011.19;;;18.54;100.00
740;BME280;354;42.694;23.336;2022-08-16T04:09:41;95009.59;;;18.53;100.00
740;BME280;354;42.694;23.336;2022-08-16T04:12:08;95012.00;;;18.64;100.00
740;BME280;354;42.694;23.336;2022-08-16T04:14:34;94995.47;;;18.62;100.00
740;BME280;354;42.694;23.336;2022-08-16T04:16:59;94993.06;;;18.56;100.00
740;BME280;354;42.694;23.336;2022-08-16T04:19:26;94988.28;;;18.42;100.00
740;BME280;354;42.694;23.336;2022-08-16T04:21:52;95002.66;;;18.26;100.00
740;BME280;354;42.694;23.336;2022-08-16T04:24:18;95001.31;;;18.19;100.00
740;BME280;354;42.694;23.336;2022-08-16T04:26:43;94995.97;;;18.24;100.00
740;BME280;354;42.694;23.336;2022-08-16T04:29:09;95000.53;;;18.28;100.00
740;BME280;354;42.694;23.336;2022-08-16T04:31:35;95002.94;;;18.25;100.00
740;BME280;354;42.694;23.336;2022-08-16T04:34:00;95009.56;;;18.27;100.00
740;BME280;354;42.694;23.336;2022-08-16T04:36:26;95012.53;;;18.56;100.00
740;BME280;354;42.694;23.336;2022-08-16T04:38:52;95004.84;;;18.70;100.00
740;BME280;354;42.694;23.336;2022-08-16T04:41:18;95005.34;;;18.77;100.00
740;BME280;354;42.694;23.336;2022-08-16T04:43:44;94997.38;;;18.82;100.00
740;BME280;354;42.694;23.336;2022-08-16T04:46:09;94995.22;;;18.64;100.00
740;BME280;354;42.694;23.336;2022-08-16T04:48:36;94997.34;;;18.67;100.00
740;BME280;354;42.694;23.336;2022-08-16T04:51:02;95010.94;;;18.50;100.00
740;BME280;354;42.694;23.336;2022-08-16T04:53:27;95005.06;;;18.33;100.00
740;BME280;354;42.694;23.336;2022-08-16T04:55:53;95007.47;;;18.24;100.00
740;BME280;354;42.694;23.336;2022-08-16T04:58:19;95005.31;;;18.26;100.00
740;BME280;354;42.694;23.336;2022-08-16T05:00:45;94994.13;;;18.34;100.00
740;BME280;354;42.694;23.336;2022-08-16T05:03:11;94989.09;;;18.53;100.00
740;BME280;354;42.694;23.336;2022-08-16T05:05:39;95006.44;;;18.71;100.00
740;BME280;354;42.694;23.336;2022-08-16T05:08:06;95010.69;;;18.98;100.00
740;BME280;354;42.694;23.336;2022-08-16T05:10:32;95009.53;;;19.34;100.00
740;BME280;354;42.694;23.336;2022-08-16T05:12:59;94999.34;;;19.62;100.00
740;BME280;354;42.694;23.336;2022-08-16T05:15:25;94993.84;;;19.92;100.00
740;BME280;354;42.694;23.336;2022-08-16T05:17:51;94984.13;;;20.17;100.00
740;BME280;354;42.694;23.336;2022-08-16T05:20:17;94981.91;;;20.24;100.00
740;BME280;354;42.694;23.336;2022-08-16T05:22:42;94994.59;;;20.42;100.00
740;BME280;354;42.694;23.336;2022-08-16T05:25:09;94994.06;;;20.45;100.00
740;BME280;354;42.694;23.336;2022-08-16T05:27:35;94998.34;;;20.46;100.00
740;BME280;354;42.694;23.336;2022-08-16T05:30:02;95000.22;;;20.80;100.00
740;BME280;354;42.694;23.336;2022-08-16T05:32:28;94997.84;;;20.78;100.00
740;BME280;354;42.694;23.336;2022-08-16T05:34:53;94995.34;;;20.87;100.00
740;BME280;354;42.694;23.336;2022-08-16T05:37:19;95004.66;;;20.95;100.00
740;BME280;354;42.694;23.336;2022-08-16T05:39:47;94982.56;;;21.08;100.00
740;BME280;354;42.694;23.336;2022-08-16T05:42:13;94991.00;;;21.20;100.00
740;BME280;354;42.694;23.336;2022-08-16T05:44:38;94975.59;;;21.12;100.00
740;BME280;354;42.694;23.336;2022-08-16T05:47:04;94982.06;;;21.35;100.00
740;BME280;354;42.694;23.336;2022-08-16T05:49:30;94986.66;;;21.53;100.00
740;BME280;354;42.694;23.336;2022-08-16T05:51:56;94975.84;;;21.64;100.00
740;BME280;354;42.694;23.336;2022-08-16T05:54:25;94983.00;;;21.92;100.00
740;BME280;354;42.694;23.336;2022-08-16T05:56:53;94984.59;;;22.50;100.00
740;BME280;354;42.694;23.336;2022-08-16T05:59:19;94971.00;;;23.25;100.00
740;BME280;354;42.694;23.336;2022-08-16T06:01:44;94967.63;;;24.25;100.00
740;BME280;354;42.694;23.336;2022-08-16T06:04:12;94967.94;;;25.84;100.00
740;BME280;354;42.694;23.336;2022-08-16T06:06:38;94965.38;;;27.17;100.00
740;BME280;354;42.694;23.336;2022-08-16T06:09:04;94970.75;;;28.02;100.00
740;BME280;354;42.694;23.336;2022-08-16T06:11:29;94972.78;;;28.05;100.00
740;BME280;354;42.694;23.336;2022-08-16T06:13:55;94979.91;;;28.10;100.00
740;BME280;354;42.694;23.336;2022-08-16T06:16:21;94970.53;;;27.87;100.00
740;BME280;354;42.694;23.336;2022-08-16T06:18:47;94975.03;;;29.20;100.00
740;BME280;354;42.694;23.336;2022-08-16T06:21:13;94973.50;;;30.98;84.59
740;BME280;354;42.694;23.336;2022-08-16T06:23:39;94978.66;;;31.31;79.09
740;BME280;354;42.694;23.336;2022-08-16T06:26:05;94982.63;;;31.65;70.28
740;BME280;354;42.694;23.336;2022-08-16T06:28:31;94973.22;;;31.78;68.51
740;BME280;354;42.694;23.336;2022-08-16T06:30:57;94963.81;;;32.07;66.71
740;BME280;354;42.694;23.336;2022-08-16T06:33:23;94965.25;;;31.69;67.97
740;BME280;354;42.694;23.336;2022-08-16T06:35:52;94965.19;;;31.50;72.29
740;BME280;354;42.694;23.336;2022-08-16T06:38:18;94961.06;;;32.58;69.24
740;BME280;354;42.694;23.336;2022-08-16T06:40:43;94966.72;;;33.08;61.23
740;BME280;354;42.694;23.336;2022-08-16T06:43:09;94978.16;;;32.78;61.86
740;BME280;354;42.694;23.336;2022-08-16T06:45:34;94960.19;;;31.84;67.68
740;BME280;354;42.694;23.336;2022-08-16T06:48:05;94958.91;;;30.74;78.99
740;BME280;354;42.694;23.336;2022-08-16T06:50:31;94957.94;;;29.53;79.05
740;BME280;354;42.694;23.336;2022-08-16T06:52:57;94954.91;;;28.76;88.13
740;BME280;354;42.694;23.336;2022-08-16T06:55:23;94955.56;;;28.10;99.55
740;BME280;354;42.694;23.336;2022-08-16T06:57:50;94916.69;;;27.43;100.00
740;BME280;354;42.694;23.336;2022-08-16T07:00:16;94946.75;;;27.33;100.00
740;BME280;354;42.694;23.336;2022-08-16T07:02:43;94938.28;;;26.79;100.00
740;BME280;354;42.694;23.336;2022-08-16T07:05:10;94939.41;;;26.78;100.00
740;BME280;354;42.694;23.336;2022-08-16T07:07:37;94932.44;;;28.42;100.00
740;BME280;354;42.694;23.336;2022-08-16T07:10:05;94928.72;;;30.91;81.01
740;BME280;354;42.694;23.336;2022-08-16T07:12:31;94927.81;;;30.59;73.62
740;BME280;354;42.694;23.336;2022-08-16T07:14:56;94928.44;;;29.51;83.02
740;BME280;354;42.694;23.336;2022-08-16T07:17:22;94927.97;;;29.37;84.55
740;BME280;354;42.694;23.336;2022-08-16T07:19:49;94922.41;;;29.09;81.99
740;BME280;354;42.694;23.336;2022-08-16T07:22:16;94919.97;;;28.08;94.71
740;BME280;354;42.694;23.336;2022-08-16T07:24:41;94919.66;;;27.12;100.00
740;BME280;354;42.694;23.336;2022-08-16T07:27:09;94908.00;;;26.73;100.00
740;BME280;354;42.694;23.336;2022-08-16T07:29:34;94906.13;;;26.57;100.00
740;BME280;354;42.694;23.336;2022-08-16T07:32:00;94916.13;;;26.47;100.00
740;BME280;354;42.694;23.336;2022-08-16T07:34:27;94925.66;;;26.45;100.00
740;BME280;354;42.694;23.336;2022-08-16T07:36:52;94915.50;;;26.33;100.00
740;BME280;354;42.694;23.336;2022-08-16T07:39:18;94919.13;;;26.28;100.00
740;BME280;354;42.694;23.336;2022-08-16T07:41:43;94916.28;;;26.42;100.00
740;BME280;354;42.694;23.336;2022-08-16T07:44:09;94914.53;;;26.20;100.00
740;BME280;354;42.694;23.336;2022-08-16T07:46:35;94909.16;;;26.38;100.00
740;BME280;354;42.694;23.336;2022-08-16T07:49:02;94916.78;;;26.44;100.00
740;BME280;354;42.694;23.336;2022-08-16T07:51:30;94917.06;;;26.51;100.00
740;BME280;354;42.694;23.336;2022-08-16T07:53:59;94918.38;;;26.54;100.00
740;BME280;354;42.694;23.336;2022-08-16T07:56:27;94901.38;;;26.27;100.00
740;BME280;354;42.694;23.336;2022-08-16T07:58:53;94923.88;;;26.32;100.00
740;BME280;354;42.694;23.336;2022-08-16T08:01:18;94917.84;;;26.26;100.00
740;BME280;354;42.694;23.336;2022-08-16T08:03:44;94919.59;;;26.13;100.00
740;BME280;354;42.694;23.336;2022-08-16T08:06:09;94928.47;;;26.14;100.00
740;BME280;354;42.694;23.336;2022-08-16T08:08:35;94925.50;;;26.15;100.00
740;BME280;354;42.694;23.336;2022-08-16T08:11:01;94924.38;;;26.34;100.00
740;BME280;354;42.694;23.336;2022-08-16T08:13:26;94925.94;;;26.35;100.00
740;BME280;354;42.694;23.336;2022-08-16T08:15:53;94919.81;;;26.43;100.00
740;BME280;354;42.694;23.336;2022-08-16T08:18:19;94920.59;;;26.43;100.00
740;BME280;354;42.694;23.336;2022-08-16T08:20:44;94918.19;;;26.42;100.00
740;BME280;354;42.694;23.336;2022-08-16T08:23:12;94907.06;;;26.52;100.00
740;BME280;354;42.694;23.336;2022-08-16T08:25:41;94912.97;;;26.45;100.00
740;BME280;354;42.694;23.336;2022-08-16T08:28:08;94915.16;;;26.52;100.00
740;BME280;354;42.694;23.336;2022-08-16T08:30:34;94915.78;;;26.58;97.33
740;BME280;354;42.694;23.336;2022-08-16T08:33:00;94908.50;;;26.41;87.62
740;BME280;354;42.694;23.336;2022-08-16T08:35:26;94910.28;;;26.54;86.72
740;BME280;354;42.694;23.336;2022-08-16T08:37:52;94908.94;;;26.77;86.71
740;BME280;354;42.694;23.336;2022-08-16T08:40:18;94903.38;;;26.83;88.32
740;BME280;354;42.694;23.336;2022-08-16T08:42:43;94886.22;;;26.87;82.36
740;BME280;354;42.694;23.336;2022-08-16T08:45:11;94907.13;;;26.99;78.49
740;BME280;354;42.694;23.336;2022-08-16T08:47:37;94921.53;;;27.20;83.96
740;BME280;354;42.694;23.336;2022-08-16T08:50:06;94918.47;;;27.30;80.17
740;BME280;354;42.694;23.336;2022-08-16T08:52:31;94922.41;;;27.42;81.21
740;BME280;354;42.694;23.336;2022-08-16T08:54:57;94913.97;;;27.43;81.90
740;BME280;354;42.694;23.336;2022-08-16T08:57:23;94915.41;;;27.41;79.86
740;BME280;354;42.694;23.336;2022-08-16T08:59:49;94907.88;;;27.25;76.74
740;BME280;354;42.694;23.336;2022-08-16T09:02:15;94905.25;;;27.38;77.61
740;BME280;354;42.694;23.336;2022-08-16T09:04:42;94909.00;;;27.54;75.13
740;BME280;354;42.694;23.336;2022-08-16T09:07:09;94897.25;;;27.50;72.96
740;BME280;354;42.694;23.336;2022-08-16T09:09:34;94906.47;;;27.49;70.93
740;BME280;354;42.694;23.336;2022-08-16T09:12:00;94903.59;;;27.54;73.00
740;BME280;354;42.694;23.336;2022-08-16T09:14:27;94902.88;;;27.66;72.85
740;BME280;354;42.694;23.336;2022-08-16T09:16:53;94896.34;;;27.67;72.35
740;BME280;354;42.694;23.336;2022-08-16T09:19:19;94917.88;;;27.84;69.96
740;BME280;354;42.694;23.336;2022-08-16T09:21:47;94904.44;;;27.75;68.09
740;BME280;354;42.694;23.336;2022-08-16T09:24:15;94914.53;;;27.87;68.11
740;BME280;354;42.694;23.336;2022-08-16T09:26:40;94921.16;;;27.98;68.38
740;BME280;354;42.694;23.336;2022-08-16T09:29:06;94912.84;;;28.03;67.70
740;BME280;354;42.694;23.336;2022-08-16T09:31:31;94916.28;;;28.33;68.13
740;BME280;354;42.694;23.336;2022-08-16T09:33:57;94914.34;;;28.55;66.89
740;BME280;354;42.694;23.336;2022-08-16T09:36:22;94925.47;;;28.74;67.47
740;BME280;354;42.694;23.336;2022-08-16T09:38:49;94917.56;;;28.69;66.70
740;BME280;354;42.694;23.336;2022-08-16T09:41:14;94919.19;;;28.61;67.68
740;BME280;354;42.694;23.336;2022-08-16T09:43:41;94902.19;;;28.61;66.16
740;BME280;354;42.694;23.336;2022-08-16T09:46:07;94904.13;;;28.73;63.66
740;BME280;354;42.694;23.336;2022-08-16T09:48:36;94902.78;;;28.79;64.02
740;BME280;354;42.694;23.336;2022-08-16T09:51:05;94907.13;;;28.92;63.88
740;BME280;354;42.694;23.336;2022-08-16T09:53:31;94906.34;;;28.92;62.53
740;BME280;354;42.694;23.336;2022-08-16T09:55:57;94904.00;;;29.02;62.35
740;BME280;354;42.694;23.336;2022-08-16T09:58:24;94908.06;;;28.96;63.18
740;BME280;354;42.694;23.336;2022-08-16T10:00:51;94907.50;;;29.03;65.76
740;BME280;354;42.694;23.336;2022-08-16T10:03:17;94912.25;;;29.06;61.40
740;BME280;354;42.694;23.336;2022-08-16T10:05:44;94911.50;;;29.18;60.86
740;BME280;354;42.694;23.336;2022-08-16T10:08:10;94921.19;;;29.19;58.90
740;BME280;354;42.694;23.336;2022-08-16T10:10:36;94910.28;;;29.39;57.27
740;BME280;354;42.694;23.336;2022-08-16T10:13:06;94904.72;;;29.48;57.79
740;BME280;354;42.694;23.336;2022-08-16T10:15:43;94910.25;;;29.76;57.35
740;BME280;354;42.694;23.336;2022-08-16T10:18:11;94908.75;;;30.03;56.35
740;BME280;354;42.694;23.336;2022-08-16T10:20:42;94898.47;;;29.97;56.79
740;BME280;354;42.694;23.336;2022-08-16T10:23:11;94900.22;;;29.64;57.41
740;BME280;354;42.694;23.336;2022-08-16T10:25:42;94896.16;;;29.34;57.34
740;BME280;354;42.694;23.336;2022-08-16T10:28:09;94892.09;;;29.40;58.14
740;BME280;354;42.694;23.336;2022-08-16T10:30:35;94895.59;;;29.40;56.67
740;BME280;354;42.694;23.336;2022-08-16T10:33:02;94906.09;;;29.30;55.70
740;BME280;354;42.694;23.336;2022-08-16T10:35:28;94880.88;;;29.05;57.16
740;BME280;354;42.694;23.336;2022-08-16T10:37:53;94881.34;;;29.07;57.15
740;BME280;354;42.694;23.336;2022-08-16T10:40:19;94895.25;;;29.18;58.29
740;BME280;354;42.694;23.336;2022-08-16T10:42:45;94900.44;;;29.35;58.80
740;BME280;354;42.694;23.336;2022-08-16T10:45:11;94878.31;;;29.21;62.25
740;BME280;354;42.694;23.336;2022-08-16T10:47:36;94913.16;;;29.10;60.97
740;BME280;354;42.694;23.336;2022-08-16T10:50:04;94908.47;;;28.86;64.61
740;BME280;354;42.694;23.336;2022-08-16T10:52:30;94892.66;;;28.43;65.09
740;BME280;354;42.694;23.336;2022-08-16T10:54:57;94899.44;;;28.49;61.97
740;BME280;354;42.694;23.336;2022-08-16T10:57:24;94898.56;;;28.57;62.81
740;BME280;354;42.694;23.336;2022-08-16T10:59:49;94907.56;;;28.49;59.13
740;BME280;354;42.694;23.336;2022-08-16T11:02:19;94900.19;;;28.70;57.57
740;BME280;354;42.694;23.336;2022-08-16T11:04:44;94892.31;;;28.89;57.84
740;BME280;354;42.694;23.336;2022-08-16T11:07:10;94892.84;;;29.04;56.55
740;BME280;354;42.694;23.336;2022-08-16T11:09:38;94902.53;;;29.05;54.78
740;BME280;354;42.694;23.336;2022-08-16T11:12:04;94897.34;;;29.00;56.62
740;BME280;354;42.694;23.336;2022-08-16T11:14:34;94892.63;;;29.21;57.87
740;BME280;354;42.694;23.336;2022-08-16T11:17:02;94894.56;;;29.33;56.00
740;BME280;354;42.694;23.336;2022-08-16T11:19:28;94890.84;;;29.25;55.08
740;BME280;354;42.694;23.336;2022-08-16T11:21:54;94889.72;;;29.63;55.96
740;BME280;354;42.694;23.336;2022-08-16T11:24:20;94868.16;;;29.54;55.17
740;BME280;354;42.694;23.336;2022-08-16T11:26:46;94890.53;;;29.63;55.00
740;BME280;354;42.694;23.336;2022-08-16T11:29:12;94896.72;;;29.52;53.32
740;BME280;354;42.694;23.336;2022-08-16T11:31:37;94883.63;;;29.42;53.60
740;BME280;354;42.694;23.336;2022-08-16T11:34:02;94884.06;;;29.19;57.55
740;BME280;354;42.694;23.336;2022-08-16T11:36:28;94889.03;;;28.39;64.87
740;BME280;354;42.694;23.336;2022-08-16T11:38:55;94883.69;;;27.88;68.19
740;BME280;354;42.694;23.336;2022-08-16T11:41:20;94886.13;;;28.02;67.74
740;BME280;354;42.694;23.336;2022-08-16T11:43:46;94893.56;;;28.05;73.80
740;BME280;354;42.694;23.336;2022-08-16T11:46:13;94889.16;;;27.50;79.24
740;BME280;354;42.694;23.336;2022-08-16T11:48:39;94903.56;;;26.69;85.57
740;BME280;354;42.694;23.336;2022-08-16T11:51:05;94918.81;;;26.21;100.00
740;BME280;354;42.694;23.336;2022-08-16T11:53:31;94935.47;;;25.09;100.00
740;BME280;354;42.694;23.336;2022-08-16T11:55:57;94923.31;;;24.00;100.00
740;BME280;354;42.694;23.336;2022-08-16T11:58:25;94906.28;;;23.54;100.00
740;BME280;354;42.694;23.336;2022-08-16T12:00:51;94907.59;;;23.16;100.00
740;BME280;354;42.694;23.336;2022-08-16T12:03:17;94897.53;;;23.07;100.00
740;BME280;354;42.694;23.336;2022-08-16T12:05:45;94892.56;;;23.01;100.00
740;BME280;354;42.694;23.336;2022-08-16T12:08:11;94884.53;;;23.01;100.00
740;BME280;354;42.694;23.336;2022-08-16T12:10:38;94893.00;;;23.08;100.00
740;BME280;354;42.694;23.336;2022-08-16T12:13:05;94887.38;;;23.59;100.00
740;BME280;354;42.694;23.336;2022-08-16T12:15:31;94887.16;;;24.06;100.00
740;BME280;354;42.694;23.336;2022-08-16T12:17:57;94888.47;;;24.53;100.00
740;BME280;354;42.694;23.336;2022-08-16T12:20:29;94874.13;;;24.89;100.00
740;BME280;354;42.694;23.336;2022-08-16T12:22:56;94865.38;;;25.14;100.00
740;BME280;354;42.694;23.336;2022-08-16T12:25:28;94864.84;;;25.52;100.00
740;BME280;354;42.694;23.336;2022-08-16T12:27:54;94864.22;;;25.55;100.00
740;BME280;354;42.694;23.336;2022-08-16T12:30:24;94859.41;;;25.43;100.00
740;BME280;354;42.694;23.336;2022-08-16T12:32:50;94861.63;;;25.33;100.00
740;BME280;354;42.694;23.336;2022-08-16T12:35:18;94859.53;;;25.21;100.00
740;BME280;354;42.694;23.336;2022-08-16T12:37:46;94855.25;;;25.11;100.00
740;BME280;354;42.694;23.336;2022-08-16T12:40:15;94854.13;;;25.12;100.00
740;BME280;354;42.694;23.336;2022-08-16T12:42:41;94862.47;;;25.51;100.00
740;BME280;354;42.694;23.336;2022-08-16T12:45:15;94856.50;;;25.80;100.00
740;BME280;354;42.694;23.336;2022-08-16T12:47:40;94863.47;;;26.24;100.00
740;BME280;354;42.694;23.336;2022-08-16T12:50:24;94847.06;;;26.64;100.00
740;BME280;354;42.694;23.336;2022-08-16T12:52:50;94845.31;;;26.68;100.00
740;BME280;354;42.694;23.336;2022-08-16T12:55:16;94842.91;;;26.75;100.00
740;BME280;354;42.694;23.336;2022-08-16T12:57:42;94842.81;;;27.01;100.00
740;BME280;354;42.694;23.336;2022-08-16T13:00:12;94832.81;;;27.10;100.00
740;BME280;354;42.694;23.336;2022-08-16T13:02:39;94807.63;;;27.27;100.00
740;BME280;354;42.694;23.336;2022-08-16T13:05:05;94806.88;;;27.47;100.00
740;BME280;354;42.694;23.336;2022-08-16T13:07:30;94828.09;;;27.78;100.00
740;BME280;354;42.694;23.336;2022-08-16T13:09:58;94821.19;;;27.90;100.00
740;BME280;354;42.694;23.336;2022-08-16T13:12:33;94806.63;;;27.82;100.00
740;BME280;354;42.694;23.336;2022-08-16T13:14:59;94802.94;;;27.87;100.00
740;BME280;354;42.694;23.336;2022-08-16T13:17:26;94809.63;;;28.01;100.00
740;BME280;354;42.694;23.336;2022-08-16T13:19:52;94800.66;;;28.09;100.00
740;BME280;354;42.694;23.336;2022-08-16T13:22:20;94801.69;;;28.17;81.27
740;BME280;354;42.694;23.336;2022-08-16T13:24:46;94788.84;;;28.14;81.50